sensor_id;sensor_type;location;lat;lon;timestamp;P1;durP1;ratioP1;P2;durP2;ratioP2
33266;SDS011;19638;49.080;11.896;2023-05-10T00:02:04;4.50;;;3.53;;
33266;SDS011;19638;49.080;11.896;2023-05-10T00:06:07;7.15;;;3.60;;
33266;SDS011;19638;49.080;11.896;2023-05-10T00:10:12;4.28;;;3.70;;
33266;SDS011;19638;49.080;11.896;2023-05-10T00:14:17;4.50;;;3.08;;
33266;SDS011;19638;49.080;11.896;2023-05-10T00:18:24;6.95;;;4.20;;
33266;SDS011;19638;49.080;11.896;2023-05-10T00:22:31;9.23;;;3.55;;
33266;SDS011;19638;49.080;11.896;2023-05-10T00:26:35;6.10;;;3.90;;
33266;SDS011;19638;49.080;11.896;2023-05-10T00:30:42;5.40;;;4.15;;
33266;SDS011;19638;49.080;11.896;2023-05-10T00:34:45;4.82;;;3.63;;
33266;SDS011;19638;49.080;11.896;2023-05-10T00:38:50;4.78;;;3.72;;
33266;SDS011;19638;49.080;11.896;2023-05-10T00:43:00;5.10;;;3.85;;
33266;SDS011;19638;49.080;11.896;2023-05-10T00:47:12;4.85;;;3.75;;
33266;SDS011;19638;49.080;11.896;2023-05-10T00:51:17;4.57;;;4.03;;
33266;SDS011;19638;49.080;11.896;2023-05-10T00:55:21;4.43;;;3.83;;
33266;SDS011;19638;49.080;11.896;2023-05-10T00:59:26;6.53;;;4.30;;
33266;SDS011;19638;49.080;11.896;2023-05-10T01:03:29;5.95;;;3.83;;
33266;SDS011;19638;49.080;11.896;2023-05-10T01:07:33;5.55;;;4.60;;
33266;SDS011;19638;49.080;11.896;2023-05-10T01:11:39;7.93;;;4.65;;
33266;SDS011;19638;49.080;11.896;2023-05-10T01:15:44;6.30;;;5.10;;
33266;SDS011;19638;49.080;11.896;2023-05-10T01:19:49;8.05;;;4.50;;
33266;SDS011;19638;49.080;11.896;2023-05-10T01:24:09;7.10;;;4.80;;
33266;SDS011;19638;49.080;11.896;2023-05-10T01:28:28;5.20;;;4.72;;
33266;SDS011;19638;49.080;11.896;2023-05-10T01:32:52;6.07;;;5.32;;
33266;SDS011;19638;49.080;11.896;2023-05-10T01:37:01;5.68;;;5.07;;
33266;SDS011;19638;49.080;11.896;2023-05-10T01:41:13;7.40;;;5.40;;
33266;SDS011;19638;49.080;11.896;2023-05-10T01:45:23;5.97;;;5.38;;
33266;SDS011;19638;49.080;11.896;2023-05-10T01:49:34;7.95;;;5.15;;
33266;SDS011;19638;49.080;11.896;2023-05-10T01:53:42;6.88;;;4.78;;
33266;SDS011;19638;49.080;11.896;2023-05-10T01:57:51;8.43;;;5.15;;
33266;SDS011;19638;49.080;11.896;2023-05-10T02:01:59;7.43;;;5.28;;
33266;SDS011;19638;49.080;11.896;2023-05-10T02:06:09;9.02;;;5.10;;
33266;SDS011;19638;49.080;11.896;2023-05-10T02:10:17;6.93;;;4.93;;
33266;SDS011;19638;49.080;11.896;2023-05-10T02:14:22;7.13;;;5.35;;
33266;SDS011;19638;49.080;11.896;2023-05-10T02:18:26;6.93;;;5.72;;
33266;SDS011;19638;49.080;11.896;2023-05-10T02:22:31;7.13;;;5.63;;
33266;SDS011;19638;49.080;11.896;2023-05-10T02:26:35;6.72;;;5.20;;
33266;SDS011;19638;49.080;11.896;2023-05-10T02:30:42;9.00;;;5.60;;
33266;SDS011;19638;49.080;11.896;2023-05-10T02:34:46;8.75;;;5.15;;
33266;SDS011;19638;49.080;11.896;2023-05-10T02:38:54;12.15;;;5.80;;
33266;SDS011;19638;49.080;11.896;2023-05-10T02:42:58;10.57;;;5.82;;
33266;SDS011;19638;49.080;11.896;2023-05-10T02:47:03;7.18;;;6.38;;
33266;SDS011;19638;49.080;11.896;2023-05-10T02:51:08;10.93;;;6.22;;
33266;SDS011;19638;49.080;11.896;2023-05-10T02:55:25;10.90;;;6.18;;
33266;SDS011;19638;49.080;11.896;2023-05-10T02:59:33;7.40;;;6.00;;
33266;SDS011;19638;49.080;11.896;2023-05-10T03:03:42;10.18;;;5.95;;
33266;SDS011;19638;49.080;11.896;2023-05-10T03:07:46;7.20;;;6.35;;
33266;SDS011;19638;49.080;11.896;2023-05-10T03:11:54;10.45;;;7.22;;
33266;SDS011;19638;49.080;11.896;2023-05-10T03:16:05;9.63;;;7.07;;
33266;SDS011;19638;49.080;11.896;2023-05-10T03:20:16;9.85;;;6.53;;
33266;SDS011;19638;49.080;11.896;2023-05-10T03:24:27;10.43;;;6.93;;
33266;SDS011;19638;49.080;11.896;2023-05-10T03:28:32;10.30;;;6.85;;
33266;SDS011;19638;49.080;11.896;2023-05-10T03:32:37;12.43;;;7.70;;
33266;SDS011;19638;49.080;11.896;2023-05-10T03:36:41;14.65;;;7.13;;
33266;SDS011;19638;49.080;11.896;2023-05-10T03:40:46;14.60;;;7.28;;
33266;SDS011;19638;49.080;11.896;2023-05-10T03:44:53;12.98;;;6.93;;
33266;SDS011;19638;49.080;11.896;2023-05-10T03:48:56;11.35;;;7.20;;
33266;SDS011;19638;49.080;11.896;2023-05-10T03:53:03;12.48;;;8.48;;
33266;SDS011;19638;49.080;11.896;2023-05-10T03:57:06;13.15;;;8.23;;
33266;SDS011;19638;49.080;11.896;2023-05-10T04:01:11;17.75;;;9.05;;
33266;SDS011;19638;49.080;11.896;2023-05-10T04:05:15;13.73;;;8.30;;
33266;SDS011;19638;49.080;11.896;2023-05-10T04:09:24;14.82;;;8.90;;
33266;SDS011;19638;49.080;11.896;2023-05-10T04:13:31;20.70;;;9.70;;
33266;SDS011;19638;49.080;11.896;2023-05-10T04:17:44;17.52;;;9.25;;
33266;SDS011;19638;49.080;11.896;2023-05-10T04:21:47;16.98;;;9.55;;
33266;SDS011;19638;49.080;11.896;2023-05-10T04:25:50;20.25;;;9.52;;
33266;SDS011;19638;49.080;11.896;2023-05-10T04:29:55;15.57;;;9.60;;
33266;SDS011;19638;49.080;11.896;2023-05-10T04:33:59;14.27;;;8.68;;
33266;SDS011;19638;49.080;11.896;2023-05-10T04:38:03;23.13;;;9.70;;
33266;SDS011;19638;49.080;11.896;2023-05-10T04:42:07;16.95;;;9.43;;
33266;SDS011;19638;49.080;11.896;2023-05-10T04:46:12;22.77;;;10.05;;
33266;SDS011;19638;49.080;11.896;2023-05-10T04:50:19;16.88;;;9.45;;
33266;SDS011;19638;49.080;11.896;2023-05-10T04:54:25;16.80;;;9.68;;
33266;SDS011;19638;49.080;11.896;2023-05-10T04:58:32;17.15;;;10.68;;
33266;SDS011;19638;49.080;11.896;2023-05-10T05:02:35;19.30;;;10.30;;
33266;SDS011;19638;49.080;11.896;2023-05-10T05:06:40;18.75;;;10.10;;
33266;SDS011;19638;49.080;11.896;2023-05-10T05:10:46;17.17;;;10.73;;
33266;SDS011;19638;49.080;11.896;2023-05-10T05:14:55;18.05;;;10.20;;
33266;SDS011;19638;49.080;11.896;2023-05-10T05:19:01;22.73;;;10.77;;
33266;SDS011;19638;49.080;11.896;2023-05-10T05:23:05;18.65;;;10.70;;
33266;SDS011;19638;49.080;11.896;2023-05-10T05:27:09;18.50;;;9.70;;
33266;SDS011;19638;49.080;11.896;2023-05-10T05:31:18;19.02;;;10.15;;
33266;SDS011;19638;49.080;11.896;2023-05-10T05:35:23;22.30;;;10.48;;
33266;SDS011;19638;49.080;11.896;2023-05-10T05:39:29;19.33;;;11.25;;
33266;SDS011;19638;49.080;11.896;2023-05-10T05:43:33;19.55;;;9.38;;
33266;SDS011;19638;49.080;11.896;2023-05-10T05:47:38;14.13;;;7.85;;
33266;SDS011;19638;49.080;11.896;2023-05-10T05:51:41;12.32;;;7.15;;
33266;SDS011;19638;49.080;11.896;2023-05-10T05:55:56;8.68;;;5.85;;
33266;SDS011;19638;49.080;11.896;2023-05-10T06:00:00;3.75;;;3.38;;
33266;SDS011;19638;49.080;11.896;2023-05-10T06:04:07;3.75;;;2.53;;
33266;SDS011;19638;49.080;11.896;2023-05-10T06:08:10;2.15;;;2.00;;
33266;SDS011;19638;49.080;11.896;2023-05-10T06:12:15;1.60;;;1.45;;
33266;SDS011;19638;49.080;11.896;2023-05-10T06:16:20;1.67;;;1.58;;
33266;SDS011;19638;49.080;11.896;2023-05-10T06:20:26;1.20;;;1.20;;
33266;SDS011;19638;49.080;11.896;2023-05-10T06:24:32;1.63;;;1.52;;
33266;SDS011;19638;49.080;11.896;2023-05-10T06:28:40;1.48;;;1.42;;
33266;SDS011;19638;49.080;11.896;2023-05-10T06:32:43;1.20;;;1.20;;
33266;SDS011;19638;49.080;11.896;2023-05-10T06:36:48;1.30;;;1.30;;
33266;SDS011;19638;49.080;11.896;2023-05-10T06:40:53;4.22;;;1.33;;
33266;SDS011;19638;49.080;11.896;2023-05-10T06:44:58;1.20;;;1.20;;
33266;SDS011;19638;49.080;11.896;2023-05-10T06:49:02;1.40;;;1.30;;
33266;SDS011;19638;49.080;11.896;2023-05-10T06:53:13;1.15;;;1.15;;
33266;SDS011;19638;49.080;11.896;2023-05-10T06:57:19;1.08;;;1.08;;
33266;SDS011;19638;49.080;11.896;2023-05-10T07:01:33;1.48;;;1.48;;
33266;SDS011;19638;49.080;11.896;2023-05-10T07:05:37;2.08;;;1.27;;
33266;SDS011;19638;49.080;11.896;2023-05-10T07:09:42;1.83;;;1.20;;
33266;SDS011;19638;49.080;11.896;2023-05-10T07:13:46;1.30;;;1.30;;
33266;SDS011;19638;49.080;11.896;2023-05-10T07:17:53;1.42;;;1.25;;
33266;SDS011;19638;49.080;11.896;2023-05-10T07:21:57;1.20;;;1.20;;
33266;SDS011;19638;49.080;11.896;2023-05-10T07:26:02;1.20;;;1.20;;
33266;SDS011;19638;49.080;11.896;2023-05-10T07:30:07;1.30;;;1.30;;
33266;SDS011;19638;49.080;11.896;2023-05-10T07:34:13;1.30;;;1.30;;
33266;SDS011;19638;49.080;11.896;2023-05-10T07:38:16;1.45;;;1.40;;
33266;SDS011;19638;49.080;11.896;2023-05-10T07:42:21;2.30;;;1.50;;
33266;SDS011;19638;49.080;11.896;2023-05-10T07:46:24;1.70;;;1.60;;
33266;SDS011;19638;49.080;11.896;2023-05-10T07:50:32;1.50;;;1.45;;
33266;SDS011;19638;49.080;11.896;2023-05-10T07:54:45;1.48;;;1.48;;
33266;SDS011;19638;49.080;11.896;2023-05-10T07:58:54;1.50;;;1.40;;
33266;SDS011;19638;49.080;11.896;2023-05-10T08:02:59;2.13;;;1.50;;
33266;SDS011;19638;49.080;11.896;2023-05-10T08:07:04;2.38;;;1.45;;
33266;SDS011;19638;49.080;11.896;2023-05-10T08:11:07;1.50;;;1.50;;
33266;SDS011;19638;49.080;11.896;2023-05-10T08:15:10;4.03;;;1.67;;
33266;SDS011;19638;49.080;11.896;2023-05-10T08:19:13;1.88;;;1.55;;
33266;SDS011;19638;49.080;11.896;2023-05-10T08:23:21;1.30;;;1.30;;
33266;SDS011;19638;49.080;11.896;2023-05-10T08:27:24;1.50;;;1.50;;
33266;SDS011;19638;49.080;11.896;2023-05-10T08:31:30;1.70;;;1.70;;
33266;SDS011;19638;49.080;11.896;2023-05-10T08:35:36;1.30;;;1.30;;
33266;SDS011;19638;49.080;11.896;2023-05-10T08:39:41;1.30;;;1.30;;
33266;SDS011;19638;49.080;11.896;2023-05-10T08:43:44;1.30;;;1.30;;
33266;SDS011;19638;49.080;11.896;2023-05-10T08:47:48;1.80;;;1.70;;
33266;SDS011;19638;49.080;11.896;2023-05-10T08:51:53;1.70;;;1.40;;
33266;SDS011;19638;49.080;11.896;2023-05-10T08:55:59;1.92;;;1.70;;
33266;SDS011;19638;49.080;11.896;2023-05-10T09:00:05;3.30;;;1.77;;
33266;SDS011;19638;49.080;11.896;2023-05-10T09:04:15;3.55;;;2.00;;
33266;SDS011;19638;49.080;11.896;2023-05-10T09:08:18;2.05;;;1.95;;
33266;SDS011;19638;49.080;11.896;2023-05-10T09:12:24;2.47;;;1.65;;
33266;SDS011;19638;49.080;11.896;2023-05-10T09:16:33;1.80;;;1.70;;
33266;SDS011;19638;49.080;11.896;2023-05-10T09:20:38;1.70;;;1.60;;
33266;SDS011;19638;49.080;11.896;2023-05-10T09:24:42;1.70;;;1.60;;
33266;SDS011;19638;49.080;11.896;2023-05-10T09:28:53;2.67;;;1.58;;
33266;SDS011;19638;49.080;11.896;2023-05-10T09:32:58;1.50;;;1.50;;
33266;SDS011;19638;49.080;11.896;2023-05-10T09:37:02;4.88;;;1.60;;
33266;SDS011;19638;49.080;11.896;2023-05-10T09:41:15;1.98;;;1.48;;
33266;SDS011;19638;49.080;11.896;2023-05-10T09:45:20;1.58;;;1.50;;
33266;SDS011;19638;49.080;11.896;2023-05-10T09:49:24;1.35;;;1.30;;
33266;SDS011;19638;49.080;11.896;2023-05-10T09:53:32;2.47;;;1.63;;
33266;SDS011;19638;49.080;11.896;2023-05-10T09:57:42;2.05;;;1.77;;
33266;SDS011;19638;49.080;11.896;2023-05-10T10:01:50;2.15;;;1.13;;
33266;SDS011;19638;49.080;11.896;2023-05-10T10:05:54;1.30;;;1.30;;
33266;SDS011;19638;49.080;11.896;2023-05-10T10:10:00;1.60;;;1.55;;
33266;SDS011;19638;49.080;11.896;2023-05-10T10:14:06;1.23;;;1.23;;
33266;SDS011;19638;49.080;11.896;2023-05-10T10:18:12;2.15;;;1.20;;
33266;SDS011;19638;49.080;11.896;2023-05-10T10:22:19;1.05;;;1.05;;
33266;SDS011;19638;49.080;11.896;2023-05-10T10:26:22;1.08;;;1.08;;
33266;SDS011;19638;49.080;11.896;2023-05-10T10:30:32;0.98;;;0.98;;
33266;SDS011;19638;49.080;11.896;2023-05-10T10:34:45;1.05;;;1.05;;
33266;SDS011;19638;49.080;11.896;2023-05-10T10:38:55;1.38;;;1.27;;
33266;SDS011;19638;49.080;11.896;2023-05-10T10:47:29;1.10;;;1.10;;
33266;SDS011;19638;49.080;11.896;2023-05-10T10:51:37;4.43;;;2.00;;
33266;SDS011;19638;49.080;11.896;2023-05-10T10:55:48;3.15;;;1.10;;
33266;SDS011;19638;49.080;11.896;2023-05-10T11:04:24;2.28;;;1.40;;
33266;SDS011;19638;49.080;11.896;2023-05-10T11:08:29;1.70;;;1.20;;
33266;SDS011;19638;49.080;11.896;2023-05-10T11:12:47;1.00;;;1.00;;
33266;SDS011;19638;49.080;11.896;2023-05-10T11:16:54;1.10;;;1.10;;
33266;SDS011;19638;49.080;11.896;2023-05-10T11:21:00;1.25;;;1.15;;
33266;SDS011;19638;49.080;11.896;2023-05-10T11:25:11;1.25;;;1.25;;
33266;SDS011;19638;49.080;11.896;2023-05-10T11:29:15;1.25;;;1.15;;
33266;SDS011;19638;49.080;11.896;2023-05-10T11:33:19;1.10;;;1.10;;
33266;SDS011;19638;49.080;11.896;2023-05-10T11:37:23;1.02;;;1.00;;
33266;SDS011;19638;49.080;11.896;2023-05-10T11:41:28;1.20;;;1.20;;
33266;SDS011;19638;49.080;11.896;2023-05-10T11:45:32;1.50;;;1.20;;
33266;SDS011;19638;49.080;11.896;2023-05-10T11:49:38;1.20;;;1.20;;
33266;SDS011;19638;49.080;11.896;2023-05-10T11:53:48;1.85;;;1.10;;
33266;SDS011;19638;49.080;11.896;2023-05-10T11:58:00;1.50;;;1.23;;
33266;SDS011;19638;49.080;11.896;2023-05-10T12:02:14;1.95;;;1.10;;
33266;SDS011;19638;49.080;11.896;2023-05-10T12:06:18;1.20;;;1.20;;
33266;SDS011;19638;49.080;11.896;2023-05-10T12:10:25;3.33;;;1.90;;
33266;SDS011;19638;49.080;11.896;2023-05-10T12:14:38;2.17;;;1.40;;
33266;SDS011;19638;49.080;11.896;2023-05-10T12:18:43;1.58;;;1.48;;
33266;SDS011;19638;49.080;11.896;2023-05-10T12:22:52;3.25;;;1.67;;
33266;SDS011;19638;49.080;11.896;2023-05-10T12:27:04;2.10;;;2.00;;
33266;SDS011;19638;49.080;11.896;2023-05-10T12:31:13;2.28;;;2.08;;
33266;SDS011;19638;49.080;11.896;2023-05-10T12:35:19;3.33;;;2.15;;
33266;SDS011;19638;49.080;11.896;2023-05-10T12:39:25;2.40;;;2.22;;
33266;SDS011;19638;49.080;11.896;2023-05-10T12:43:28;2.25;;;2.10;;
33266;SDS011;19638;49.080;11.896;2023-05-10T12:47:34;3.55;;;2.08;;
33266;SDS011;19638;49.080;11.896;2023-05-10T12:51:44;2.67;;;2.33;;
33266;SDS011;19638;49.080;11.896;2023-05-10T12:55:47;4.78;;;2.30;;
33266;SDS011;19638;49.080;11.896;2023-05-10T12:59:50;4.88;;;2.10;;
33266;SDS011;19638;49.080;11.896;2023-05-10T13:03:56;4.63;;;2.25;;
33266;SDS011;19638;49.080;11.896;2023-05-10T13:08:01;4.47;;;3.10;;
33266;SDS011;19638;49.080;11.896;2023-05-10T13:12:07;2.22;;;2.13;;
33266;SDS011;19638;49.080;11.896;2023-05-10T13:16:11;2.75;;;2.00;;
33266;SDS011;19638;49.080;11.896;2023-05-10T13:20:19;2.80;;;2.15;;
33266;SDS011;19638;49.080;11.896;2023-05-10T13:24:23;2.40;;;1.90;;
33266;SDS011;19638;49.080;11.896;2023-05-10T13:28:27;1.83;;;1.77;;
33266;SDS011;19638;49.080;11.896;2023-05-10T13:32:34;1.90;;;1.80;;
33266;SDS011;19638;49.080;11.896;2023-05-10T13:36:40;5.15;;;2.15;;
33266;SDS011;19638;49.080;11.896;2023-05-10T13:40:46;5.20;;;2.22;;
33266;SDS011;19638;49.080;11.896;2023-05-10T13:44:49;2.63;;;1.95;;
33266;SDS011;19638;49.080;11.896;2023-05-10T13:48:52;3.03;;;2.00;;
33266;SDS011;19638;49.080;11.896;2023-05-10T13:53:00;2.08;;;1.98;;
33266;SDS011;19638;49.080;11.896;2023-05-10T13:57:06;2.40;;;1.80;;
33266;SDS011;19638;49.080;11.896;2023-05-10T14:01:10;3.63;;;2.10;;
33266;SDS011;19638;49.080;11.896;2023-05-10T14:05:17;4.15;;;2.00;;
33266;SDS011;19638;49.080;11.896;2023-05-10T14:09:32;3.15;;;1.90;;
33266;SDS011;19638;49.080;11.896;2023-05-10T14:13:35;2.92;;;1.80;;
33266;SDS011;19638;49.080;11.896;2023-05-10T14:17:38;3.53;;;1.92;;
33266;SDS011;19638;49.080;11.896;2023-05-10T14:21:42;2.35;;;2.15;;
33266;SDS011;19638;49.080;11.896;2023-05-10T14:25:47;6.07;;;2.17;;
33266;SDS011;19638;49.080;11.896;2023-05-10T14:29:50;2.50;;;1.70;;
33266;SDS011;19638;49.080;11.896;2023-05-10T14:33:57;3.03;;;1.63;;
33266;SDS011;19638;49.080;11.896;2023-05-10T14:38:01;1.63;;;1.60;;
33266;SDS011;19638;49.080;11.896;2023-05-10T14:42:06;3.15;;;1.92;;
33266;SDS011;19638;49.080;11.896;2023-05-10T14:46:10;2.05;;;1.80;;
33266;SDS011;19638;49.080;11.896;2023-05-10T14:50:14;2.10;;;2.00;;
33266;SDS011;19638;49.080;11.896;2023-05-10T14:54:35;2.75;;;2.00;;
33266;SDS011;19638;49.080;11.896;2023-05-10T14:58:44;5.03;;;2.45;;
33266;SDS011;19638;49.080;11.896;2023-05-10T15:02:49;4.65;;;3.10;;
33266;SDS011;19638;49.080;11.896;2023-05-10T15:06:52;3.35;;;2.45;;
33266;SDS011;19638;49.080;11.896;2023-05-10T15:11:03;20.63;;;8.02;;
33266;SDS011;19638;49.080;11.896;2023-05-10T15:15:08;4.95;;;3.40;;
33266;SDS011;19638;49.080;11.896;2023-05-10T15:19:25;5.50;;;3.13;;
33266;SDS011;19638;49.080;11.896;2023-05-10T15:23:28;4.40;;;3.97;;
33266;SDS011;19638;49.080;11.896;2023-05-10T15:27:32;13.23;;;8.63;;
33266;SDS011;19638;49.080;11.896;2023-05-10T15:31:38;7.40;;;5.45;;
33266;SDS011;19638;49.080;11.896;2023-05-10T15:35:41;6.35;;;4.22;;
33266;SDS011;19638;49.080;11.896;2023-05-10T15:39:49;4.07;;;3.70;;
33266;SDS011;19638;49.080;11.896;2023-05-10T15:43:53;3.83;;;3.20;;
33266;SDS011;19638;49.080;11.896;2023-05-10T15:47:58;6.05;;;2.95;;
33266;SDS011;19638;49.080;11.896;2023-05-10T15:52:01;7.78;;;3.50;;
33266;SDS011;19638;49.080;11.896;2023-05-10T15:56:05;7.65;;;4.40;;
33266;SDS011;19638;49.080;11.896;2023-05-10T16:00:11;7.00;;;3.25;;
33266;SDS011;19638;49.080;11.896;2023-05-10T16:04:20;5.13;;;4.13;;
33266;SDS011;19638;49.080;11.896;2023-05-10T16:08:24;4.57;;;2.75;;
33266;SDS011;19638;49.080;11.896;2023-05-10T16:12:31;6.30;;;3.00;;
33266;SDS011;19638;49.080;11.896;2023-05-10T16:16:37;8.52;;;3.53;;
33266;SDS011;19638;49.080;11.896;2023-05-10T16:20:43;5.22;;;3.05;;
33266;SDS011;19638;49.080;11.896;2023-05-10T16:24:46;4.18;;;2.90;;
33266;SDS011;19638;49.080;11.896;2023-05-10T16:28:53;3.88;;;3.20;;
33266;SDS011;19638;49.080;11.896;2023-05-10T16:32:59;10.82;;;9.60;;
33266;SDS011;19638;49.080;11.896;2023-05-10T16:37:04;26.75;;;24.15;;
33266;SDS011;19638;49.080;11.896;2023-05-10T16:41:07;8.52;;;5.40;;
33266;SDS011;19638;49.080;11.896;2023-05-10T16:45:12;9.55;;;8.60;;
33266;SDS011;19638;49.080;11.896;2023-05-10T16:49:16;28.15;;;22.10;;
33266;SDS011;19638;49.080;11.896;2023-05-10T16:53:21;8.02;;;5.47;;
33266;SDS011;19638;49.080;11.896;2023-05-10T16:57:24;6.57;;;4.72;;
33266;SDS011;19638;49.080;11.896;2023-05-10T17:01:29;8.05;;;4.65;;
33266;SDS011;19638;49.080;11.896;2023-05-10T17:05:35;6.32;;;4.97;;
33266;SDS011;19638;49.080;11.896;2023-05-10T17:09:40;9.00;;;4.90;;
33266;SDS011;19638;49.080;11.896;2023-05-10T17:13:46;12.25;;;6.95;;
33266;SDS011;19638;49.080;11.896;2023-05-10T17:17:52;9.00;;;6.38;;
33266;SDS011;19638;49.080;11.896;2023-05-10T17:21:55;7.78;;;4.72;;
33266;SDS011;19638;49.080;11.896;2023-05-10T17:26:02;10.85;;;4.93;;
33266;SDS011;19638;49.080;11.896;2023-05-10T17:30:07;16.65;;;11.95;;
33266;SDS011;19638;49.080;11.896;2023-05-10T17:34:10;10.60;;;5.50;;
33266;SDS011;19638;49.080;11.896;2023-05-10T17:38:15;8.65;;;5.28;;
33266;SDS011;19638;49.080;11.896;2023-05-10T17:42:20;4.90;;;4.35;;
33266;SDS011;19638;49.080;11.896;2023-05-10T17:46:23;5.38;;;4.05;;
33266;SDS011;19638;49.080;11.896;2023-05-10T17:50:30;6.65;;;4.35;;
33266;SDS011;19638;49.080;11.896;2023-05-10T17:54:33;3.60;;;3.30;;
33266;SDS011;19638;49.080;11.896;2023-05-10T17:58:38;9.50;;;3.67;;
33266;SDS011;19638;49.080;11.896;2023-05-10T18:02:42;5.97;;;3.97;;
33266;SDS011;19638;49.080;11.896;2023-05-10T18:06:47;6.22;;;3.90;;
33266;SDS011;19638;49.080;11.896;2023-05-10T18:10:51;8.93;;;4.10;;
33266;SDS011;19638;49.080;11.896;2023-05-10T18:14:57;5.78;;;4.18;;
33266;SDS011;19638;49.080;11.896;2023-05-10T18:24:07;7.90;;;4.63;;
33266;SDS011;19638;49.080;11.896;2023-05-10T18:28:52;7.28;;;4.65;;
33266;SDS011;19638;49.080;11.896;2023-05-10T18:33:11;7.30;;;4.30;;
33266;SDS011;19638;49.080;11.896;2023-05-10T18:37:18;9.32;;;4.95;;
33266;SDS011;19638;49.080;11.896;2023-05-10T18:41:30;10.13;;;5.30;;
33266;SDS011;19638;49.080;11.896;2023-05-10T18:51:08;11.05;;;5.35;;
33266;SDS011;19638;49.080;11.896;2023-05-10T18:55:17;9.85;;;5.85;;
33266;SDS011;19638;49.080;11.896;2023-05-10T18:59:26;7.97;;;5.00;;
33266;SDS011;19638;49.080;11.896;2023-05-10T19:03:33;6.15;;;4.80;;
33266;SDS011;19638;49.080;11.896;2023-05-10T19:07:41;10.32;;;5.10;;
33266;SDS011;19638;49.080;11.896;2023-05-10T19:11:50;8.48;;;5.75;;
33266;SDS011;19638;49.080;11.896;2023-05-10T19:16:05;13.73;;;5.50;;
33266;SDS011;19638;49.080;11.896;2023-05-10T19:20:15;7.47;;;5.68;;
33266;SDS011;19638;49.080;11.896;2023-05-10T19:24:20;15.35;;;5.53;;
33266;SDS011;19638;49.080;11.896;2023-05-10T19:28:26;13.55;;;6.10;;
33266;SDS011;19638;49.080;11.896;2023-05-10T19:32:29;10.55;;;5.72;;
33266;SDS011;19638;49.080;11.896;2023-05-10T19:36:33;11.95;;;5.80;;
33266;SDS011;19638;49.080;11.896;2023-05-10T19:40:37;13.02;;;5.90;;
33266;SDS011;19638;49.080;11.896;2023-05-10T19:44:43;9.85;;;5.10;;
33266;SDS011;19638;49.080;11.896;2023-05-10T19:48:46;9.73;;;5.15;;
33266;SDS011;19638;49.080;11.896;2023-05-10T19:52:49;8.35;;;4.85;;
33266;SDS011;19638;49.080;11.896;2023-05-10T19:56:54;9.98;;;5.32;;
33266;SDS011;19638;49.080;11.896;2023-05-10T20:00:59;7.47;;;4.70;;
33266;SDS011;19638;49.080;11.896;2023-05-10T20:05:03;9.48;;;4.88;;
33266;SDS011;19638;49.080;11.896;2023-05-10T20:09:10;6.70;;;4.22;;
33266;SDS011;19638;49.080;11.896;2023-05-10T20:13:16;11.07;;;4.68;;
33266;SDS011;19638;49.080;11.896;2023-05-10T20:17:19;9.02;;;4.93;;
33266;SDS011;19638;49.080;11.896;2023-05-10T20:21:25;8.18;;;5.18;;
33266;SDS011;19638;49.080;11.896;2023-05-10T20:25:44;9.68;;;5.18;;
33266;SDS011;19638;49.080;11.896;2023-05-10T20:51:19;14.98;;;5.68;;
33266;SDS011;19638;49.080;11.896;2023-05-10T21:01:12;9.93;;;6.10;;
33266;SDS011;19638;49.080;11.896;2023-05-10T21:06:00;10.75;;;6.30;;
33266;SDS011;19638;49.080;11.896;2023-05-10T21:16:08;9.15;;;5.88;;
33266;SDS011;19638;49.080;11.896;2023-05-10T21:20:57;11.55;;;5.95;;
33266;SDS011;19638;49.080;11.896;2023-05-10T21:25:50;12.98;;;6.55;;
33266;SDS011;19638;49.080;11.896;2023-05-10T21:29:53;11.40;;;5.80;;
33266;SDS011;19638;49.080;11.896;2023-05-10T21:33:58;9.43;;;5.78;;
33266;SDS011;19638;49.080;11.896;2023-05-10T21:38:04;10.60;;;5.53;;
33266;SDS011;19638;49.080;11.896;2023-05-10T21:42:12;13.80;;;6.30;;
33266;SDS011;19638;49.080;11.896;2023-05-10T21:46:15;13.45;;;6.28;;
33266;SDS011;19638;49.080;11.896;2023-05-10T21:50:23;9.95;;;5.82;;
33266;SDS011;19638;49.080;11.896;2023-05-10T21:54:26;10.13;;;5.53;;
33266;SDS011;19638;49.080;11.896;2023-05-10T21:58:33;14.15;;;5.97;;
33266;SDS011;19638;49.080;11.896;2023-05-10T22:02:39;12.13;;;5.50;;
33266;SDS011;19638;49.080;11.896;2023-05-10T22:06:48;15.20;;;6.35;;
33266;SDS011;19638;49.080;11.896;2023-05-10T22:10:52;11.40;;;5.78;;
33266;SDS011;19638;49.080;11.896;2023-05-10T22:14:55;10.23;;;6.13;;
33266;SDS011;19638;49.080;11.896;2023-05-10T22:19:11;12.02;;;6.28;;
33266;SDS011;19638;49.080;11.896;2023-05-10T22:23:15;12.90;;;6.68;;
33266;SDS011;19638;49.080;11.896;2023-05-10T22:27:18;23.77;;;8.02;;
33266;SDS011;19638;49.080;11.896;2023-05-10T22:31:22;13.38;;;6.72;;
33266;SDS011;19638;49.080;11.896;2023-05-10T22:35:25;12.43;;;6.65;;
33266;SDS011;19638;49.080;11.896;2023-05-10T22:39:29;17.15;;;7.18;;
33266;SDS011;19638;49.080;11.896;2023-05-10T22:43:34;21.15;;;7.22;;
33266;SDS011;19638;49.080;11.896;2023-05-10T22:47:39;13.48;;;7.07;;
33266;SDS011;19638;49.080;11.896;2023-05-10T22:51:45;15.75;;;7.50;;
33266;SDS011;19638;49.080;11.896;2023-05-10T22:55:49;16.08;;;7.57;;
33266;SDS011;19638;49.080;11.896;2023-05-10T22:59:54;14.60;;;6.80;;
33266;SDS011;19638;49.080;11.896;2023-05-10T23:03:57;15.02;;;6.38;;
33266;SDS011;19638;49.080;11.896;2023-05-10T23:08:00;15.48;;;6.57;;
33266;SDS011;19638;49.080;11.896;2023-05-10T23:12:08;14.77;;;7.03;;
33266;SDS011;19638;49.080;11.896;2023-05-10T23:16:13;14.63;;;6.68;;
33266;SDS011;19638;49.080;11.896;2023-05-10T23:20:20;19.25;;;6.30;;
33266;SDS011;19638;49.080;11.896;2023-05-10T23:24:23;13.50;;;6.07;;
33266;SDS011;19638;49.080;11.896;2023-05-10T23:28:28;19.75;;;6.65;;
33266;SDS011;19638;49.080;11.896;2023-05-10T23:32:37;17.35;;;6.50;;
33266;SDS011;19638;49.080;11.896;2023-05-10T23:36:40;12.73;;;6.60;;
33266;SDS011;19638;49.080;11.896;2023-05-10T23:40:46;12.25;;;6.22;;
33266;SDS011;19638;49.080;11.896;2023-05-10T23:44:54;16.45;;;6.45;;
33266;SDS011;19638;49.080;11.896;2023-05-10T23:48:57;15.48;;;7.25;;
33266;SDS011;19638;49.080;11.896;2023-05-10T23:53:00;14.25;;;7.03;;
33266;SDS011;19638;49.080;11.896;2023-05-10T23:57:10;14.60;;;6.75;;
